sensor_id;sensor_type;location;lat;lon;timestamp;pressure;altitude;pressure_sealevel;temperature;humidity
50166;BME280;36071;48.140;11.516;2022-12-18T00:03:24;96530.0;;;-4.0;82.2
50166;BME280;36071;48.140;11.516;2022-12-18T00:08:24;96510.0;;;-4.0;83.2
50166;BME280;36071;48.140;11.516;2022-12-18T00:13:24;96510.0;;;-4.0;83.7
50166;BME280;36071;48.140;11.516;2022-12-18T00:18:24;96530.0;;;-3.9;83.7
50166;BME280;36071;48.140;11.516;2022-12-18T00:23:24;96510.0;;;-4.0;83.5
50166;BME280;36071;48.140;11.516;2022-12-18T00:28:24;96510.0;;;-4.0;85.0
50166;BME280;36071;48.140;11.516;2022-12-18T00:33:24;96540.0;;;-4.0;84.3
50166;BME280;36071;48.140;11.516;2022-12-18T00:38:24;96550.0;;;-4.0;84.4
50166;BME280;36071;48.140;11.516;2022-12-18T00:43:24;96540.0;;;-3.9;84.1
50166;BME280;36071;48.140;11.516;2022-12-18T00:48:24;96550.0;;;-3.8;83.6
50166;BME280;36071;48.140;11.516;2022-12-18T00:53:24;96540.0;;;-3.8;84.4
50166;BME280;36071;48.140;11.516;2022-12-18T00:58:24;96540.0;;;-3.7;82.2
50166;BME280;36071;48.140;11.516;2022-12-18T01:03:24;96550.0;;;-3.7;83.3
50166;BME280;36071;48.140;11.516;2022-12-18T01:08:24;96570.0;;;-3.9;82.9
50166;BME280;36071;48.140;11.516;2022-12-18T01:13:25;96560.0;;;-3.8;82.7
50166;BME280;36071;48.140;11.516;2022-12-18T01:18:24;96570.0;;;-3.8;83.6
50166;BME280;36071;48.140;11.516;2022-12-18T01:23:27;96590.0;;;-3.9;83.7
50166;BME280;36071;48.140;11.516;2022-12-18T01:28:23;96600.0;;;-3.8;83.4
50166;BME280;36071;48.140;11.516;2022-12-18T01:33:24;96600.0;;;-3.9;83.3
50166;BME280;36071;48.140;11.516;2022-12-18T01:38:24;96600.0;;;-3.8;82.3
50166;BME280;36071;48.140;11.516;2022-12-18T01:43:40;96600.0;;;-3.9;82.3
50166;BME280;36071;48.140;11.516;2022-12-18T01:48:24;96610.0;;;-3.8;82.5
50166;BME280;36071;48.140;11.516;2022-12-18T01:53:24;96610.0;;;-3.7;83.2
50166;BME280;36071;48.140;11.516;2022-12-18T01:58:30;96620.0;;;-3.8;82.8
50166;BME280;36071;48.140;11.516;2022-12-18T02:03:24;96610.0;;;-3.9;82.7
50166;BME280;36071;48.140;11.516;2022-12-18T02:08:25;96610.0;;;-3.9;82.8
50166;BME280;36071;48.140;11.516;2022-12-18T02:13:25;96600.0;;;-4.0;83.4
50166;BME280;36071;48.140;11.516;2022-12-18T02:18:25;96590.0;;;-4.0;83.2
50166;BME280;36071;48.140;11.516;2022-12-18T02:23:36;96600.0;;;-4.1;83.7
50166;BME280;36071;48.140;11.516;2022-12-18T02:28:25;96600.0;;;-4.2;83.9
50166;BME280;36071;48.140;11.516;2022-12-18T02:33:23;96590.0;;;-4.3;84.3
50166;BME280;36071;48.140;11.516;2022-12-18T02:38:24;96590.0;;;-4.2;84.3
50166;BME280;36071;48.140;11.516;2022-12-18T02:43:24;96600.0;;;-4.2;84.5
50166;BME280;36071;48.140;11.516;2022-12-18T02:48:24;96590.0;;;-4.3;84.7
50166;BME280;36071;48.140;11.516;2022-12-18T02:53:24;96610.0;;;-4.4;85.1
50166;BME280;36071;48.140;11.516;2022-12-18T02:58:26;96610.0;;;-4.4;85.4
50166;BME280;36071;48.140;11.516;2022-12-18T03:03:24;96610.0;;;-4.5;85.5
50166;BME280;36071;48.140;11.516;2022-12-18T03:08:24;96590.0;;;-4.4;85.7
50166;BME280;36071;48.140;11.516;2022-12-18T03:13:25;96590.0;;;-4.5;85.2
50166;BME280;36071;48.140;11.516;2022-12-18T03:18:25;96580.0;;;-4.6;85.5
50166;BME280;36071;48.140;11.516;2022-12-18T03:23:24;96590.0;;;-4.5;85.8
50166;BME280;36071;48.140;11.516;2022-12-18T03:28:24;96600.0;;;-4.3;85.7
50166;BME280;36071;48.140;11.516;2022-12-18T03:33:25;96590.0;;;-4.4;85.4
50166;BME280;36071;48.140;11.516;2022-12-18T03:38:24;96600.0;;;-4.4;85.6
50166;BME280;36071;48.140;11.516;2022-12-18T03:43:26;96600.0;;;-4.4;85.7
50166;BME280;36071;48.140;11.516;2022-12-18T03:48:26;96600.0;;;-4.4;85.3
50166;BME280;36071;48.140;11.516;2022-12-18T03:53:27;96600.0;;;-4.5;85.7
50166;BME280;36071;48.140;11.516;2022-12-18T03:58:24;96610.0;;;-4.4;86.0
50166;BME280;36071;48.140;11.516;2022-12-18T04:03:23;96610.0;;;-4.4;85.4
50166;BME280;36071;48.140;11.516;2022-12-18T04:08:23;96610.0;;;-4.5;85.8
50166;BME280;36071;48.140;11.516;2022-12-18T04:13:24;96600.0;;;-4.6;85.9
50166;BME280;36071;48.140;11.516;2022-12-18T04:18:23;96610.0;;;-4.4;86.4
50166;BME280;36071;48.140;11.516;2022-12-18T04:23:23;96610.0;;;-4.3;85.0
50166;BME280;36071;48.140;11.516;2022-12-18T04:28:24;96610.0;;;-4.5;85.0
50166;BME280;36071;48.140;11.516;2022-12-18T04:33:24;96620.0;;;-4.4;85.7
50166;BME280;36071;48.140;11.516;2022-12-18T04:38:23;96620.0;;;-4.4;85.4
50166;BME280;36071;48.140;11.516;2022-12-18T04:43:24;96610.0;;;-4.4;85.4
50166;BME280;36071;48.140;11.516;2022-12-18T04:48:24;96620.0;;;-4.3;85.2
50166;BME280;36071;48.140;11.516;2022-12-18T04:53:24;96630.0;;;-4.5;85.0
50166;BME280;36071;48.140;11.516;2022-12-18T04:58:24;96650.0;;;-4.4;85.2
50166;BME280;36071;48.140;11.516;2022-12-18T05:03:23;96640.0;;;-4.4;84.3
50166;BME280;36071;48.140;11.516;2022-12-18T05:08:24;96630.0;;;-4.4;83.2
50166;BME280;36071;48.140;11.516;2022-12-18T05:13:23;96650.0;;;-4.4;84.6
50166;BME280;36071;48.140;11.516;2022-12-18T05:18:24;96650.0;;;-4.3;84.4
50166;BME280;36071;48.140;11.516;2022-12-18T05:23:24;96640.0;;;-4.3;83.7
50166;BME280;36071;48.140;11.516;2022-12-18T05:28:24;96650.0;;;-4.2;83.0
50166;BME280;36071;48.140;11.516;2022-12-18T05:33:24;96650.0;;;-4.2;82.5
50166;BME280;36071;48.140;11.516;2022-12-18T05:43:24;96660.0;;;-4.3;82.8
50166;BME280;36071;48.140;11.516;2022-12-18T05:48:24;96660.0;;;-4.3;82.9
50166;BME280;36071;48.140;11.516;2022-12-18T05:53:23;96670.0;;;-4.3;82.7
50166;BME280;36071;48.140;11.516;2022-12-18T05:58:24;96670.0;;;-4.2;83.2
50166;BME280;36071;48.140;11.516;2022-12-18T06:03:24;96670.0;;;-4.3;83.2
50166;BME280;36071;48.140;11.516;2022-12-18T06:08:23;96680.0;;;-4.3;82.6
50166;BME280;36071;48.140;11.516;2022-12-18T06:13:23;96670.0;;;-4.4;82.5
50166;BME280;36071;48.140;11.516;2022-12-18T06:18:23;96670.0;;;-4.4;82.7
50166;BME280;36071;48.140;11.516;2022-12-18T06:23:38;96670.0;;;-4.5;82.8
50166;BME280;36071;48.140;11.516;2022-12-18T06:28:24;96680.0;;;-4.6;83.1
50166;BME280;36071;48.140;11.516;2022-12-18T06:33:25;96680.0;;;-4.5;83.1
50166;BME280;36071;48.140;11.516;2022-12-18T06:38:24;96700.0;;;-4.4;83.0
50166;BME280;36071;48.140;11.516;2022-12-18T06:43:23;96700.0;;;-4.5;82.7
50166;BME280;36071;48.140;11.516;2022-12-18T06:48:24;96700.0;;;-4.4;82.9
50166;BME280;36071;48.140;11.516;2022-12-18T06:53:23;96700.0;;;-4.6;83.2
50166;BME280;36071;48.140;11.516;2022-12-18T06:58:23;96710.0;;;-4.6;83.2
50166;BME280;36071;48.140;11.516;2022-12-18T07:03:23;96700.0;;;-4.5;82.9
50166;BME280;36071;48.140;11.516;2022-12-18T07:08:24;96720.0;;;-4.4;82.8
50166;BME280;36071;48.140;11.516;2022-12-18T07:13:24;96720.0;;;-4.5;83.7
50166;BME280;36071;48.140;11.516;2022-12-18T07:18:24;96740.0;;;-4.4;82.2
50166;BME280;36071;48.140;11.516;2022-12-18T07:23:23;96740.0;;;-4.4;81.8
50166;BME280;36071;48.140;11.516;2022-12-18T07:28:23;96750.0;;;-4.4;81.5
50166;BME280;36071;48.140;11.516;2022-12-18T07:33:24;96740.0;;;-4.4;81.8
50166;BME280;36071;48.140;11.516;2022-12-18T07:38:23;96740.0;;;-4.5;82.2
50166;BME280;36071;48.140;11.516;2022-12-18T07:43:23;96720.0;;;-4.4;81.6
50166;BME280;36071;48.140;11.516;2022-12-18T07:48:23;96740.0;;;-4.5;81.0
50166;BME280;36071;48.140;11.516;2022-12-18T07:53:24;96740.0;;;-4.5;81.5
50166;BME280;36071;48.140;11.516;2022-12-18T07:58:23;96740.0;;;-4.4;81.8
50166;BME280;36071;48.140;11.516;2022-12-18T08:03:23;96740.0;;;-4.3;81.4
50166;BME280;36071;48.140;11.516;2022-12-18T08:08:24;96750.0;;;-4.3;81.8
50166;BME280;36071;48.140;11.516;2022-12-18T08:13:24;96770.0;;;-4.3;81.5
50166;BME280;36071;48.140;11.516;2022-12-18T08:18:24;96770.0;;;-4.3;80.5
50166;BME280;36071;48.140;11.516;2022-12-18T08:23:23;96770.0;;;-4.2;81.7
50166;BME280;36071;48.140;11.516;2022-12-18T08:28:23;96770.0;;;-4.1;81.9
50166;BME280;36071;48.140;11.516;2022-12-18T08:33:23;96770.0;;;-4.0;80.4
50166;BME280;36071;48.140;11.516;2022-12-18T08:38:23;96770.0;;;-4.2;80.5
50166;BME280;36071;48.140;11.516;2022-12-18T08:43:23;96770.0;;;-4.2;80.1
50166;BME280;36071;48.140;11.516;2022-12-18T08:48:23;96780.0;;;-4.0;80.3
50166;BME280;36071;48.140;11.516;2022-12-18T08:53:25;96780.0;;;-4.1;80.1
50166;BME280;36071;48.140;11.516;2022-12-18T08:58:23;96770.0;;;-4.2;80.2
50166;BME280;36071;48.140;11.516;2022-12-18T09:03:23;96780.0;;;-4.1;79.9
50166;BME280;36071;48.140;11.516;2022-12-18T09:08:23;96780.0;;;-4.0;80.0
50166;BME280;36071;48.140;11.516;2022-12-18T09:13:23;96780.0;;;-3.9;79.5
50166;BME280;36071;48.140;11.516;2022-12-18T09:18:24;96790.0;;;-4.0;79.5
50166;BME280;36071;48.140;11.516;2022-12-18T09:23:23;96790.0;;;-4.1;80.2
50166;BME280;36071;48.140;11.516;2022-12-18T09:28:24;96780.0;;;-4.1;79.7
50166;BME280;36071;48.140;11.516;2022-12-18T09:33:23;96780.0;;;-4.1;78.7
50166;BME280;36071;48.140;11.516;2022-12-18T09:38:23;96780.0;;;-4.1;77.7
50166;BME280;36071;48.140;11.516;2022-12-18T09:43:24;96780.0;;;-4.0;78.6
50166;BME280;36071;48.140;11.516;2022-12-18T09:48:26;96770.0;;;-4.0;78.5
50166;BME280;36071;48.140;11.516;2022-12-18T09:53:24;96770.0;;;-4.1;77.9
50166;BME280;36071;48.140;11.516;2022-12-18T09:58:26;96770.0;;;-4.2;78.5
50166;BME280;36071;48.140;11.516;2022-12-18T10:03:23;96770.0;;;-4.3;78.4
50166;BME280;36071;48.140;11.516;2022-12-18T10:08:24;96770.0;;;-4.0;78.1
50166;BME280;36071;48.140;11.516;2022-12-18T10:13:25;96750.0;;;-4.1;78.2
50166;BME280;36071;48.140;11.516;2022-12-18T10:18:26;96750.0;;;-3.9;78.6
50166;BME280;36071;48.140;11.516;2022-12-18T10:23:25;96750.0;;;-3.9;78.5
50166;BME280;36071;48.140;11.516;2022-12-18T10:28:24;96750.0;;;-3.8;78.0
50166;BME280;36071;48.140;11.516;2022-12-18T10:33:27;96740.0;;;-3.9;77.6
50166;BME280;36071;48.140;11.516;2022-12-18T10:38:24;96720.0;;;-3.8;77.7
50166;BME280;36071;48.140;11.516;2022-12-18T10:43:24;96730.0;;;-4.0;78.5
50166;BME280;36071;48.140;11.516;2022-12-18T10:48:24;96740.0;;;-3.7;77.9
50166;BME280;36071;48.140;11.516;2022-12-18T10:53:24;96730.0;;;-3.7;77.3
50166;BME280;36071;48.140;11.516;2022-12-18T10:58:24;96720.0;;;-3.7;77.2
50166;BME280;36071;48.140;11.516;2022-12-18T11:03:32;96730.0;;;-3.5;77.4
50166;BME280;36071;48.140;11.516;2022-12-18T11:08:23;96750.0;;;-3.6;76.9
50166;BME280;36071;48.140;11.516;2022-12-18T11:13:24;96750.0;;;-3.5;77.3
50166;BME280;36071;48.140;11.516;2022-12-18T11:18:25;96750.0;;;-3.4;76.5
50166;BME280;36071;48.140;11.516;2022-12-18T11:23:24;96750.0;;;-3.5;76.7
50166;BME280;36071;48.140;11.516;2022-12-18T11:28:25;96760.0;;;-3.5;76.2
50166;BME280;36071;48.140;11.516;2022-12-18T11:33:23;96740.0;;;-3.3;75.8
50166;BME280;36071;48.140;11.516;2022-12-18T11:38:24;96740.0;;;-3.5;75.0
50166;BME280;36071;48.140;11.516;2022-12-18T11:43:25;96720.0;;;-3.4;76.6
50166;BME280;36071;48.140;11.516;2022-12-18T11:48:24;96720.0;;;-3.3;76.2
50166;BME280;36071;48.140;11.516;2022-12-18T11:53:24;96720.0;;;-3.3;75.0
50166;BME280;36071;48.140;11.516;2022-12-18T11:58:27;96720.0;;;-3.3;74.6
50166;BME280;36071;48.140;11.516;2022-12-18T12:03:27;96710.0;;;-3.2;74.2
50166;BME280;36071;48.140;11.516;2022-12-18T12:08:26;96710.0;;;-3.3;74.8
50166;BME280;36071;48.140;11.516;2022-12-18T12:13:27;96690.0;;;-3.5;75.2
50166;BME280;36071;48.140;11.516;2022-12-18T12:18:25;96710.0;;;-3.3;74.5
50166;BME280;36071;48.140;11.516;2022-12-18T12:23:26;96710.0;;;-3.3;74.9
50166;BME280;36071;48.140;11.516;2022-12-18T12:28:27;96700.0;;;-3.4;75.2
50166;BME280;36071;48.140;11.516;2022-12-18T12:33:27;96690.0;;;-3.3;74.8
50166;BME280;36071;48.140;11.516;2022-12-18T12:38:24;96690.0;;;-3.3;75.0
50166;BME280;36071;48.140;11.516;2022-12-18T12:43:26;96700.0;;;-3.3;74.6
50166;BME280;36071;48.140;11.516;2022-12-18T12:48:27;96690.0;;;-3.3;74.2
50166;BME280;36071;48.140;11.516;2022-12-18T12:53:25;96690.0;;;-3.5;75.3
50166;BME280;36071;48.140;11.516;2022-12-18T12:58:26;96700.0;;;-3.4;74.7
50166;BME280;36071;48.140;11.516;2022-12-18T13:03:26;96690.0;;;-3.2;74.3
50166;BME280;36071;48.140;11.516;2022-12-18T13:08:24;96700.0;;;-3.3;74.0
50166;BME280;36071;48.140;11.516;2022-12-18T13:13:23;96710.0;;;-3.2;74.2
50166;BME280;36071;48.140;11.516;2022-12-18T13:18:24;96710.0;;;-3.2;74.5
50166;BME280;36071;48.140;11.516;2022-12-18T13:23:27;96720.0;;;-3.3;75.1
50166;BME280;36071;48.140;11.516;2022-12-18T13:28:24;96710.0;;;-3.2;74.3
50166;BME280;36071;48.140;11.516;2022-12-18T13:33:41;96700.0;;;-3.3;74.6
50166;BME280;36071;48.140;11.516;2022-12-18T13:38:24;96710.0;;;-3.4;75.3
50166;BME280;36071;48.140;11.516;2022-12-18T13:43:26;96710.0;;;-3.4;75.8
50166;BME280;36071;48.140;11.516;2022-12-18T13:48:24;96710.0;;;-3.4;75.5
50166;BME280;36071;48.140;11.516;2022-12-18T13:53:25;96700.0;;;-3.4;76.6
50166;BME280;36071;48.140;11.516;2022-12-18T13:58:25;96690.0;;;-3.3;76.0
50166;BME280;36071;48.140;11.516;2022-12-18T14:03:26;96690.0;;;-3.5;75.6
50166;BME280;36071;48.140;11.516;2022-12-18T14:08:23;96700.0;;;-3.5;75.9
50166;BME280;36071;48.140;11.516;2022-12-18T14:13:24;96700.0;;;-3.5;75.8
50166;BME280;36071;48.140;11.516;2022-12-18T14:18:24;96690.0;;;-3.5;75.7
50166;BME280;36071;48.140;11.516;2022-12-18T14:23:27;96700.0;;;-3.5;76.0
50166;BME280;36071;48.140;11.516;2022-12-18T14:28:23;96710.0;;;-3.8;76.6
50166;BME280;36071;48.140;11.516;2022-12-18T14:33:24;96720.0;;;-3.8;77.2
50166;BME280;36071;48.140;11.516;2022-12-18T14:38:25;96700.0;;;-3.8;78.1
50166;BME280;36071;48.140;11.516;2022-12-18T14:43:23;96710.0;;;-3.7;78.1
50166;BME280;36071;48.140;11.516;2022-12-18T14:48:30;96700.0;;;-3.8;78.4
50166;BME280;36071;48.140;11.516;2022-12-18T14:53:26;96700.0;;;-3.7;77.6
50166;BME280;36071;48.140;11.516;2022-12-18T14:58:23;96700.0;;;-3.8;77.4
50166;BME280;36071;48.140;11.516;2022-12-18T15:03:23;96700.0;;;-3.8;78.0
50166;BME280;36071;48.140;11.516;2022-12-18T15:08:28;96700.0;;;-3.8;78.1
50166;BME280;36071;48.140;11.516;2022-12-18T15:13:24;96710.0;;;-3.8;77.9
50166;BME280;36071;48.140;11.516;2022-12-18T15:18:26;96700.0;;;-3.8;78.0
50166;BME280;36071;48.140;11.516;2022-12-18T15:23:24;96710.0;;;-4.0;78.3
50166;BME280;36071;48.140;11.516;2022-12-18T15:28:24;96710.0;;;-4.1;80.0
50166;BME280;36071;48.140;11.516;2022-12-18T15:33:24;96710.0;;;-4.2;80.4
50166;BME280;36071;48.140;11.516;2022-12-18T15:38:23;96710.0;;;-4.2;80.1
50166;BME280;36071;48.140;11.516;2022-12-18T15:43:24;96700.0;;;-4.1;81.0
50166;BME280;36071;48.140;11.516;2022-12-18T15:48:23;96690.0;;;-4.1;80.3
50166;BME280;36071;48.140;11.516;2022-12-18T15:53:25;96700.0;;;-4.0;80.3
50166;BME280;36071;48.140;11.516;2022-12-18T15:58:23;96700.0;;;-3.9;79.3
50166;BME280;36071;48.140;11.516;2022-12-18T16:03:23;96710.0;;;-4.1;78.7
50166;BME280;36071;48.140;11.516;2022-12-18T16:08:23;96690.0;;;-4.0;78.5
50166;BME280;36071;48.140;11.516;2022-12-18T16:13:23;96700.0;;;-4.2;79.8
50166;BME280;36071;48.140;11.516;2022-12-18T16:18:23;96700.0;;;-4.1;78.9
50166;BME280;36071;48.140;11.516;2022-12-18T16:28:23;96690.0;;;-4.3;79.1
50166;BME280;36071;48.140;11.516;2022-12-18T16:33:23;96690.0;;;-4.2;79.9
50166;BME280;36071;48.140;11.516;2022-12-18T16:38:24;96690.0;;;-4.3;79.4
50166;BME280;36071;48.140;11.516;2022-12-18T16:43:23;96690.0;;;-4.2;79.9
50166;BME280;36071;48.140;11.516;2022-12-18T16:48:23;96690.0;;;-4.4;79.9
50166;BME280;36071;48.140;11.516;2022-12-18T16:53:23;96690.0;;;-4.2;79.7
50166;BME280;36071;48.140;11.516;2022-12-18T16:58:23;96690.0;;;-4.3;79.4
50166;BME280;36071;48.140;11.516;2022-12-18T17:03:23;96690.0;;;-4.3;79.8
50166;BME280;36071;48.140;11.516;2022-12-18T17:08:23;96700.0;;;-4.3;80.6
50166;BME280;36071;48.140;11.516;2022-12-18T17:13:25;96700.0;;;-4.2;80.0
50166;BME280;36071;48.140;11.516;2022-12-18T17:18:23;96690.0;;;-4.2;80.0
50166;BME280;36071;48.140;11.516;2022-12-18T17:23:23;96690.0;;;-4.3;79.9
50166;BME280;36071;48.140;11.516;2022-12-18T17:28:23;96680.0;;;-4.3;80.2
50166;BME280;36071;48.140;11.516;2022-12-18T17:33:23;96680.0;;;-4.3;81.1
50166;BME280;36071;48.140;11.516;2022-12-18T17:38:23;96690.0;;;-4.3;81.0
50166;BME280;36071;48.140;11.516;2022-12-18T17:43:23;96690.0;;;-4.3;80.0
50166;BME280;36071;48.140;11.516;2022-12-18T17:48:24;96680.0;;;-4.3;81.0
50166;BME280;36071;48.140;11.516;2022-12-18T17:53:23;96690.0;;;-4.5;81.8
50166;BME280;36071;48.140;11.516;2022-12-18T17:58:24;96690.0;;;-4.4;81.4
50166;BME280;36071;48.140;11.516;2022-12-18T18:03:24;96680.0;;;-4.4;81.4
50166;BME280;36071;48.140;11.516;2022-12-18T18:08:25;96680.0;;;-4.5;81.1
50166;BME280;36071;48.140;11.516;2022-12-18T18:13:24;96670.0;;;-4.5;81.6
50166;BME280;36071;48.140;11.516;2022-12-18T18:18:23;96680.0;;;-4.3;81.1
50166;BME280;36071;48.140;11.516;2022-12-18T18:23:24;96680.0;;;-4.3;80.8
50166;BME280;36071;48.140;11.516;2022-12-18T18:28:23;96680.0;;;-4.4;80.8
50166;BME280;36071;48.140;11.516;2022-12-18T18:33:23;96670.0;;;-4.4;80.6
50166;BME280;36071;48.140;11.516;2022-12-18T18:38:23;96670.0;;;-4.5;82.1
50166;BME280;36071;48.140;11.516;2022-12-18T18:43:23;96670.0;;;-4.6;81.4
50166;BME280;36071;48.140;11.516;2022-12-18T18:48:23;96660.0;;;-4.8;81.8
50166;BME280;36071;48.140;11.516;2022-12-18T18:53:24;96660.0;;;-4.7;82.3
50166;BME280;36071;48.140;11.516;2022-12-18T18:58:23;96660.0;;;-4.7;81.4
50166;BME280;36071;48.140;11.516;2022-12-18T19:03:23;96650.0;;;-4.6;81.3
50166;BME280;36071;48.140;11.516;2022-12-18T19:08:24;96650.0;;;-4.8;80.9
50166;BME280;36071;48.140;11.516;2022-12-18T19:13:24;96650.0;;;-4.8;81.4
50166;BME280;36071;48.140;11.516;2022-12-18T19:18:23;96650.0;;;-5.0;82.0
50166;BME280;36071;48.140;11.516;2022-12-18T19:23:24;96660.0;;;-4.8;81.9
50166;BME280;36071;48.140;11.516;2022-12-18T19:28:23;96650.0;;;-4.8;82.1
50166;BME280;36071;48.140;11.516;2022-12-18T19:33:24;96650.0;;;-4.8;82.3
50166;BME280;36071;48.140;11.516;2022-12-18T19:38:24;96650.0;;;-4.9;82.1
50166;BME280;36071;48.140;11.516;2022-12-18T19:43:23;96650.0;;;-4.8;83.7
50166;BME280;36071;48.140;11.516;2022-12-18T19:48:23;96650.0;;;-4.8;81.5
50166;BME280;36071;48.140;11.516;2022-12-18T19:53:23;96650.0;;;-4.7;80.6
50166;BME280;36071;48.140;11.516;2022-12-18T19:58:24;96650.0;;;-4.7;80.7
50166;BME280;36071;48.140;11.516;2022-12-18T20:03:23;96640.0;;;-4.8;83.7
50166;BME280;36071;48.140;11.516;2022-12-18T20:08:24;96650.0;;;-4.8;81.8
50166;BME280;36071;48.140;11.516;2022-12-18T20:13:23;96640.0;;;-4.7;80.3
50166;BME280;36071;48.140;11.516;2022-12-18T20:18:23;96630.0;;;-4.8;81.8
50166;BME280;36071;48.140;11.516;2022-12-18T20:23:23;96620.0;;;-4.8;81.2
50166;BME280;36071;48.140;11.516;2022-12-18T20:28:24;96620.0;;;-4.6;80.2
50166;BME280;36071;48.140;11.516;2022-12-18T20:33:23;96610.0;;;-4.8;80.4
50166;BME280;36071;48.140;11.516;2022-12-18T20:38:23;96620.0;;;-4.8;80.9
50166;BME280;36071;48.140;11.516;2022-12-18T20:43:23;96620.0;;;-4.8;80.5
50166;BME280;36071;48.140;11.516;2022-12-18T20:48:23;96620.0;;;-5.0;81.1
50166;BME280;36071;48.140;11.516;2022-12-18T20:53:23;96620.0;;;-4.8;81.6
50166;BME280;36071;48.140;11.516;2022-12-18T20:58:24;96630.0;;;-4.8;80.8
50166;BME280;36071;48.140;11.516;2022-12-18T21:03:23;96620.0;;;-4.8;80.5
50166;BME280;36071;48.140;11.516;2022-12-18T21:08:38;96600.0;;;-4.8;81.0
50166;BME280;36071;48.140;11.516;2022-12-18T21:13:23;96590.0;;;-4.8;80.9
50166;BME280;36071;48.140;11.516;2022-12-18T21:18:23;96600.0;;;-4.8;80.7
50166;BME280;36071;48.140;11.516;2022-12-18T21:23:23;96600.0;;;-4.9;81.2
50166;BME280;36071;48.140;11.516;2022-12-18T21:28:23;96590.0;;;-5.0;81.7
50166;BME280;36071;48.140;11.516;2022-12-18T21:33:25;96590.0;;;-4.9;80.8
50166;BME280;36071;48.140;11.516;2022-12-18T21:38:23;96580.0;;;-4.9;81.1
50166;BME280;36071;48.140;11.516;2022-12-18T21:43:23;96580.0;;;-4.8;81.7
50166;BME280;36071;48.140;11.516;2022-12-18T21:48:23;96580.0;;;-4.8;80.8
50166;BME280;36071;48.140;11.516;2022-12-18T21:53:23;96570.0;;;-4.7;80.1
50166;BME280;36071;48.140;11.516;2022-12-18T21:58:23;96570.0;;;-4.8;80.6
50166;BME280;36071;48.140;11.516;2022-12-18T22:03:25;96590.0;;;-4.9;80.8
50166;BME280;36071;48.140;11.516;2022-12-18T22:08:24;96610.0;;;-4.9;81.1
50166;BME280;36071;48.140;11.516;2022-12-18T22:13:23;96600.0;;;-4.8;80.1
50166;BME280;36071;48.140;11.516;2022-12-18T22:18:24;96590.0;;;-4.8;79.8
50166;BME280;36071;48.140;11.516;2022-12-18T22:23:24;96580.0;;;-4.9;80.7
50166;BME280;36071;48.140;11.516;2022-12-18T22:28:23;96560.0;;;-4.8;81.6
50166;BME280;36071;48.140;11.516;2022-12-18T22:33:23;96570.0;;;-4.7;81.5
50166;BME280;36071;48.140;11.516;2022-12-18T22:38:25;96580.0;;;-4.7;80.7
50166;BME280;36071;48.140;11.516;2022-12-18T22:43:28;96580.0;;;-4.6;81.2
50166;BME280;36071;48.140;11.516;2022-12-18T22:48:23;96560.0;;;-4.6;80.9
50166;BME280;36071;48.140;11.516;2022-12-18T22:53:23;96560.0;;;-4.7;80.4
50166;BME280;36071;48.140;11.516;2022-12-18T22:58:24;96560.0;;;-4.7;81.2
50166;BME280;36071;48.140;11.516;2022-12-18T23:03:23;96540.0;;;-4.7;82.6
50166;BME280;36071;48.140;11.516;2022-12-18T23:08:23;96560.0;;;-4.7;82.2
50166;BME280;36071;48.140;11.516;2022-12-18T23:13:23;96560.0;;;-4.5;81.5
50166;BME280;36071;48.140;11.516;2022-12-18T23:18:23;96550.0;;;-4.6;80.6
50166;BME280;36071;48.140;11.516;2022-12-18T23:23:23;96530.0;;;-4.5;81.3
50166;BME280;36071;48.140;11.516;2022-12-18T23:28:23;96520.0;;;-4.6;81.1
50166;BME280;36071;48.140;11.516;2022-12-18T23:33:23;96510.0;;;-4.7;81.2
50166;BME280;36071;48.140;11.516;2022-12-18T23:38:27;96510.0;;;-4.8;82.7
50166;BME280;36071;48.140;11.516;2022-12-18T23:43:24;96500.0;;;-4.9;82.3
50166;BME280;36071;48.140;11.516;2022-12-18T23:48:23;96490.0;;;-5.0;82.7
50166;BME280;36071;48.140;11.516;2022-12-18T23:53:23;96510.0;;;-5.0;82.4
50166;BME280;36071;48.140;11.516;2022-12-18T23:58:23;96520.0;;;-4.9;82.9
